Terminal Aerodrome Forecast
Issued by NWS Amarillo, TX

Current Version | Previous Version | Text Only | Print | Product List | Glossary Off
Versions: 1 2 3 4 5 6 7 8 9 10 11 12 13 14 15 16 17 18

000
FTUS44 KAMA 171720
TAFAMA
TAF
KAMA 171720Z 1718/1818 32012G22KT P6SM BKN100
     FM180100 07005KT P6SM SCT150
     FM180900 21007KT 4SM BR BKN100
     FM181400 19010KT P6SM BKN100=

USA.gov is the U.S. government's official web portal to all federal, state and local government web resources and services.